Time;durP1;ratioP1;P1;durP2;ratioP2;P2;SDS_P1;SDS_P2;PMS_P1;PMS_P2;Temp;Humidity;BMP_temperature;BMP_pressure;BME280_temperature;BME280_humidity;BME280_pressure;Samples;Min_cycle;Max_cycle;Signal;HPM_P1;HPM_P2
2021/10/10 00:00:00;;;;;;;14.50;8.03;;;8.70;99.90;;;;;;5026361;28;20464;-68
2021/10/10 00:02:27;;;;;;;18.57;8.87;;;8.70;99.90;;;;;;5021594;28;20522;-68
2021/10/10 00:04:54;;;;;;;11.23;9.00;;;8.60;99.90;;;;;;5025481;28;20841;-70
2021/10/10 00:07:21;;;;;;;20.17;10.67;;;8.50;99.90;;;;;;5023920;28;20555;-70
2021/10/10 00:09:48;;;;;;;22.93;12.60;;;8.50;99.90;;;;;;5021746;28;20494;-68
2021/10/10 00:12:15;;;;;;;20.33;9.10;;;8.50;99.90;;;;;;5013379;28;20522;-69
2021/10/10 00:14:42;;;;;;;16.33;9.53;;;8.50;99.90;;;;;;5018276;28;20562;-68
2021/10/10 00:17:10;;;;;;;15.23;7.47;;;8.40;99.90;;;;;;5020302;28;20582;-68
2021/10/10 00:19:37;;;;;;;12.93;7.03;;;8.30;99.90;;;;;;5017190;28;20522;-68
2021/10/10 00:22:04;;;;;;;9.70;5.60;;;8.30;99.90;;;;;;5015888;28;20551;-68
2021/10/10 00:24:31;;;;;;;9.37;5.80;;;8.40;99.90;;;;;;5016208;28;20885;-68
2021/10/10 00:26:58;;;;;;;7.87;6.50;;;8.30;99.90;;;;;;5021780;28;20501;-69
2021/10/10 00:29:25;;;;;;;7.93;6.60;;;8.20;99.90;;;;;;5026274;28;20931;-69
2021/10/10 00:31:51;;;;;;;12.10;6.77;;;8.20;99.90;;;;;;5019423;28;21072;-69
2021/10/10 00:34:20;;;;;;;10.40;7.53;;;8.20;99.90;;;;;;5016973;28;20547;-69
2021/10/10 00:36:47;;;;;;;14.80;8.20;;;8.20;99.90;;;;;;5019294;28;21044;-69
2021/10/10 00:39:13;;;;;;;11.33;5.50;;;8.20;99.90;;;;;;5022088;28;20484;-70
2021/10/10 00:41:40;;;;;;;11.83;6.93;;;8.20;99.90;;;;;;5018147;28;20526;-69
2021/10/10 00:44:09;;;;;;;7.73;5.40;;;8.20;99.90;;;;;;5021555;28;20532;-69
2021/10/10 00:46:36;;;;;;;4.80;4.37;;;8.10;99.90;;;;;;5020730;28;20484;-70
2021/10/10 00:49:04;;;;;;;9.33;5.00;;;8.00;99.90;;;;;;5020893;28;20571;-69
2021/10/10 00:51:35;;;;;;;10.73;6.17;;;7.90;99.90;;;;;;5018294;28;20516;-69
2021/10/10 00:54:02;;;;;;;14.90;6.13;;;7.90;99.90;;;;;;5019559;28;20492;-68
2021/10/10 00:56:31;;;;;;;7.10;5.00;;;7.80;99.90;;;;;;5021280;28;20928;-69
2021/10/10 00:58:59;;;;;;;7.60;6.60;;;7.80;99.90;;;;;;5023315;28;20528;-69
2021/10/10 01:01:27;;;;;;;10.83;5.43;;;7.80;99.90;;;;;;5019495;28;20548;-68
2021/10/10 01:03:54;;;;;;;12.73;6.00;;;7.80;99.90;;;;;;5029160;28;21010;-69
2021/10/10 01:06:21;;;;;;;9.20;5.97;;;7.90;99.90;;;;;;5026017;28;20909;-70
2021/10/10 01:08:49;;;;;;;14.83;6.00;;;7.90;99.90;;;;;;5020095;28;20516;-68
2021/10/10 01:11:18;;;;;;;8.23;4.80;;;7.70;99.90;;;;;;5020086;28;20483;-68
2021/10/10 01:13:46;;;;;;;8.27;6.17;;;7.70;99.90;;;;;;5022944;28;20474;-70
2021/10/10 01:16:12;;;;;;;10.37;4.90;;;7.80;99.90;;;;;;5020962;28;20536;-71
2021/10/10 01:18:39;;;;;;;10.13;6.13;;;7.70;99.90;;;;;;5019267;28;20523;-69
2021/10/10 01:21:08;;;;;;;8.50;5.87;;;7.70;99.90;;;;;;5017167;28;20731;-70
2021/10/10 01:23:34;;;;;;;9.97;8.03;;;7.80;99.90;;;;;;5014868;28;20460;-70
2021/10/10 01:26:01;;;;;;;8.83;5.73;;;7.70;99.90;;;;;;5020926;28;20490;-70
2021/10/10 01:28:28;;;;;;;8.90;6.00;;;7.70;99.90;;;;;;5015910;28;21382;-70
2021/10/10 01:30:55;;;;;;;12.83;7.50;;;7.70;99.90;;;;;;5018047;28;20879;-70
2021/10/10 01:33:22;;;;;;;13.03;6.60;;;7.80;99.90;;;;;;5014194;28;20465;-69
2021/10/10 01:35:49;;;;;;;5.50;4.60;;;7.70;99.90;;;;;;5025436;28;20506;-71
2021/10/10 01:38:19;;;;;;;8.53;6.77;;;7.70;99.90;;;;;;5022578;28;20524;-70
2021/10/10 01:40:47;;;;;;;7.20;5.47;;;7.60;99.90;;;;;;5022129;28;20444;-70
2021/10/10 01:43:14;;;;;;;6.20;5.23;;;7.60;99.90;;;;;;5015249;28;20534;-69
2021/10/10 01:45:41;;;;;;;8.53;4.87;;;7.50;99.90;;;;;;5014959;28;20465;-68
2021/10/10 01:48:08;;;;;;;7.97;6.60;;;7.50;99.90;;;;;;5013019;28;20810;-69
2021/10/10 01:50:36;;;;;;;6.80;5.43;;;7.50;99.90;;;;;;5019197;28;20464;-70
2021/10/10 01:53:02;;;;;;;12.20;5.73;;;7.30;99.90;;;;;;5010968;28;20461;-69
2021/10/10 01:55:31;;;;;;;6.83;4.83;;;7.30;99.90;;;;;;5019219;28;20472;-70
2021/10/10 01:57:58;;;;;;;12.37;5.30;;;7.20;99.90;;;;;;5022234;28;20534;-70
2021/10/10 02:00:25;;;;;;;7.23;6.27;;;7.30;99.90;;;;;;5021204;28;20901;-70
2021/10/10 02:02:52;;;;;;;13.00;6.13;;;7.40;99.90;;;;;;5014308;28;20568;-70
2021/10/10 02:05:19;;;;;;;7.97;5.80;;;7.30;99.90;;;;;;5020720;28;20559;-70
2021/10/10 02:07:46;;;;;;;10.20;5.50;;;7.20;99.90;;;;;;5023532;28;20911;-68
2021/10/10 02:10:13;;;;;;;11.30;6.60;;;7.30;99.90;;;;;;5020549;28;20920;-70
2021/10/10 02:12:41;;;;;;;13.47;6.63;;;7.40;99.90;;;;;;5017218;28;20439;-69
2021/10/10 02:15:09;;;;;;;8.87;5.77;;;7.40;99.90;;;;;;5014861;28;20426;-69
2021/10/10 02:17:36;;;;;;;12.03;6.13;;;7.40;99.90;;;;;;5022424;28;21214;-72
2021/10/10 02:20:05;;;;;;;7.33;5.70;;;7.40;99.90;;;;;;5014873;28;20948;-69
2021/10/10 02:22:32;;;;;;;11.80;5.77;;;7.40;99.90;;;;;;5021546;28;20548;-69
2021/10/10 02:25:00;;;;;;;11.50;6.63;;;7.40;99.90;;;;;;5024240;28;20476;-69
2021/10/10 02:27:27;;;;;;;7.67;4.87;;;7.30;99.90;;;;;;5023774;28;20490;-69
2021/10/10 02:29:55;;;;;;;10.07;6.17;;;7.20;99.90;;;;;;5021258;28;20868;-68
2021/10/10 02:32:22;;;;;;;7.50;4.50;;;7.20;99.90;;;;;;5026848;28;20543;-69
2021/10/10 02:34:49;;;;;;;13.60;5.73;;;7.20;99.90;;;;;;5033394;28;20560;-69
2021/10/10 02:37:16;;;;;;;7.73;5.10;;;7.10;99.90;;;;;;5019957;28;21046;-69
2021/10/10 02:39:43;;;;;;;11.20;6.60;;;7.10;99.90;;;;;;5026744;28;20798;-69
2021/10/10 02:42:10;;;;;;;7.13;5.10;;;7.10;99.90;;;;;;5014569;28;20427;-68
2021/10/10 02:44:37;;;;;;;8.40;5.50;;;7.00;99.90;;;;;;5018332;28;20435;-70
2021/10/10 02:47:05;;;;;;;6.93;5.00;;;7.00;99.90;;;;;;5021496;28;20566;-69
2021/10/10 02:49:32;;;;;;;6.70;5.40;;;7.00;99.90;;;;;;5016372;28;20565;-69
2021/10/10 02:51:59;;;;;;;8.97;4.80;;;6.90;99.90;;;;;;5022754;28;20468;-68
2021/10/10 02:54:26;;;;;;;6.83;6.23;;;6.90;99.90;;;;;;5027271;28;20444;-69
2021/10/10 02:56:53;;;;;;;8.87;5.33;;;6.90;99.90;;;;;;5019556;28;20892;-68
2021/10/10 02:59:20;;;;;;;8.13;5.33;;;6.90;99.90;;;;;;5023445;28;20791;-68
2021/10/10 03:01:47;;;;;;;12.30;7.90;;;6.90;99.90;;;;;;5016527;28;20563;-70
2021/10/10 03:04:15;;;;;;;13.03;5.43;;;6.90;99.90;;;;;;5017880;28;21012;-68
2021/10/10 03:06:42;;;;;;;10.57;5.50;;;6.80;99.90;;;;;;5010538;28;20546;-68
2021/10/10 03:09:09;;;;;;;16.60;6.93;;;6.80;99.90;;;;;;5015641;28;20494;-68
2021/10/10 03:11:36;;;;;;;15.13;7.03;;;6.80;99.90;;;;;;5011629;28;20557;-70
2021/10/10 03:14:03;;;;;;;14.40;7.87;;;6.80;99.90;;;;;;5024445;28;20549;-70
2021/10/10 03:16:30;;;;;;;9.17;5.73;;;6.80;99.90;;;;;;5004572;28;20626;-71
2021/10/10 03:18:57;;;;;;;7.97;5.13;;;6.70;99.90;;;;;;5014769;28;20462;-69
2021/10/10 03:21:25;;;;;;;12.03;6.73;;;6.70;99.90;;;;;;5005739;28;20457;-70
2021/10/10 03:23:52;;;;;;;8.77;6.10;;;6.70;99.90;;;;;;5016827;28;20449;-69
2021/10/10 03:26:19;;;;;;;17.10;6.80;;;6.70;99.90;;;;;;5014803;28;21127;-69
2021/10/10 03:28:46;;;;;;;9.10;6.30;;;6.70;99.90;;;;;;5005132;28;20561;-68
2021/10/10 03:31:13;;;;;;;10.90;6.40;;;6.70;99.90;;;;;;5023395;28;20484;-68
2021/10/10 03:33:40;;;;;;;10.90;6.70;;;6.70;99.90;;;;;;5025048;28;20538;-68
2021/10/10 03:36:07;;;;;;;11.63;5.33;;;6.80;99.90;;;;;;5026084;28;20796;-68
2021/10/10 03:38:36;;;;;;;10.33;6.07;;;6.80;99.90;;;;;;5007134;28;20453;-70
2021/10/10 03:41:02;;;;;;;14.43;6.60;;;6.80;99.90;;;;;;5015647;28;20887;-71
2021/10/10 03:43:29;;;;;;;12.50;6.47;;;6.70;99.90;;;;;;5013404;28;20555;-70
2021/10/10 03:45:56;;;;;;;11.30;5.73;;;6.80;99.90;;;;;;5011463;28;20531;-70
2021/10/10 03:48:24;;;;;;;7.53;4.50;;;6.80;99.90;;;;;;5013410;28;20522;-69
2021/10/10 03:50:52;;;;;;;10.23;6.63;;;6.80;99.90;;;;;;5012478;28;20427;-70
2021/10/10 03:53:20;;;;;;;10.40;6.80;;;6.80;99.90;;;;;;5023173;28;21200;-69
2021/10/10 03:55:51;;;;;;;9.70;6.90;;;6.80;99.90;;;;;;5013633;28;20848;-71
2021/10/10 03:58:17;;;;;;;9.60;6.47;;;6.80;99.90;;;;;;5011050;28;20513;-69
2021/10/10 04:00:44;;;;;;;11.10;6.30;;;6.80;99.90;;;;;;5013823;28;20480;-71
2021/10/10 04:03:13;;;;;;;7.67;6.50;;;6.90;99.90;;;;;;5011005;28;20644;-70
2021/10/10 04:05:42;;;;;;;14.33;7.73;;;6.90;99.90;;;;;;5024181;28;20419;-69
2021/10/10 04:08:09;;;;;;;12.07;6.90;;;6.80;99.90;;;;;;5023532;28;20428;-70
2021/10/10 04:10:36;;;;;;;16.90;8.97;;;6.80;99.90;;;;;;5021394;28;20691;-70
2021/10/10 04:13:06;;;;;;;11.73;5.70;;;6.90;99.90;;;;;;5025562;28;20833;-69
2021/10/10 04:15:34;;;;;;;7.40;5.40;;;6.90;99.90;;;;;;5037571;28;20522;-70
2021/10/10 04:18:01;;;;;;;9.87;6.70;;;6.90;99.90;;;;;;5027593;28;20480;-70
2021/10/10 04:20:28;;;;;;;11.10;7.17;;;6.80;99.90;;;;;;5021195;28;20830;-70
2021/10/10 04:22:56;;;;;;;11.63;5.60;;;6.80;99.90;;;;;;5025492;28;20452;-69
2021/10/10 04:25:22;;;;;;;13.97;7.40;;;6.80;99.90;;;;;;5021988;28;20456;-70
2021/10/10 04:27:50;;;;;;;10.53;5.90;;;6.70;99.90;;;;;;5033298;28;20521;-71
2021/10/10 04:30:18;;;;;;;9.27;6.27;;;6.60;99.90;;;;;;5030152;28;20520;-70
2021/10/10 04:32:45;;;;;;;9.07;5.60;;;6.60;99.90;;;;;;5030753;28;20460;-71
2021/10/10 04:35:13;;;;;;;19.00;8.80;;;6.70;99.90;;;;;;5022174;28;20610;-70
2021/10/10 04:37:40;;;;;;;7.20;5.63;;;6.70;99.90;;;;;;5017076;28;20579;-70
2021/10/10 04:40:08;;;;;;;9.87;7.10;;;6.60;99.90;;;;;;5020412;28;20480;-69
2021/10/10 04:42:35;;;;;;;8.57;5.43;;;6.60;99.90;;;;;;5020641;28;20471;-69
2021/10/10 04:45:03;;;;;;;10.53;7.60;;;6.60;99.90;;;;;;5020364;28;20485;-70
2021/10/10 04:47:31;;;;;;;9.90;6.90;;;6.60;99.90;;;;;;5021250;28;20487;-71
2021/10/10 04:49:58;;;;;;;11.00;5.37;;;6.60;99.90;;;;;;5015006;28;20562;-70
2021/10/10 04:52:26;;;;;;;8.50;6.70;;;6.60;99.90;;;;;;5026689;28;20941;-70
2021/10/10 04:54:53;;;;;;;14.60;7.57;;;6.50;99.90;;;;;;5020251;28;20763;-72
2021/10/10 04:57:21;;;;;;;7.33;5.20;;;6.60;99.90;;;;;;5019826;28;20446;-72
2021/10/10 04:59:51;;;;;;;13.40;7.40;;;6.70;99.90;;;;;;5022612;28;20540;-71
2021/10/10 05:02:19;;;;;;;11.50;8.50;;;6.70;99.90;;;;;;5005108;28;20460;-72
2021/10/10 05:04:48;;;;;;;12.63;7.30;;;6.70;99.90;;;;;;5020312;28;20752;-71
2021/10/10 05:07:16;;;;;;;6.87;5.70;;;6.70;99.90;;;;;;5018755;28;20486;-70
2021/10/10 05:09:43;;;;;;;13.03;6.60;;;6.70;99.90;;;;;;5000238;28;20529;-72
2021/10/10 05:12:10;;;;;;;12.50;6.00;;;6.60;99.90;;;;;;5017381;28;20491;-69
2021/10/10 05:14:37;;;;;;;13.00;7.73;;;6.50;99.90;;;;;;5003570;28;21016;-70
2021/10/10 05:17:05;;;;;;;11.60;6.60;;;6.30;99.90;;;;;;5012427;28;20492;-69
2021/10/10 05:19:32;;;;;;;10.07;8.33;;;6.40;99.90;;;;;;5014296;28;20921;-68
2021/10/10 05:22:01;;;;;;;9.70;5.67;;;6.40;99.90;;;;;;5017262;28;25943;-70
2021/10/10 05:24:28;;;;;;;9.87;6.07;;;6.40;99.90;;;;;;5011452;28;20566;-69
2021/10/10 05:26:55;;;;;;;12.00;6.40;;;6.40;99.90;;;;;;5012708;28;20526;-68
2021/10/10 05:29:21;;;;;;;11.97;5.70;;;6.30;99.90;;;;;;5013691;28;20473;-69
2021/10/10 05:31:48;;;;;;;6.43;5.37;;;6.20;99.90;;;;;;5019172;28;20468;-69
2021/10/10 05:34:15;;;;;;;13.80;5.83;;;6.20;99.90;;;;;;5012346;28;20551;-70
2021/10/10 05:36:42;;;;;;;7.30;5.87;;;6.20;99.90;;;;;;5014414;28;20534;-69
2021/10/10 05:39:11;;;;;;;9.40;5.03;;;6.20;99.90;;;;;;5021816;28;20548;-68
2021/10/10 05:41:38;;;;;;;10.17;5.63;;;6.10;99.90;;;;;;5019942;28;20443;-70
2021/10/10 05:44:05;;;;;;;18.03;5.93;;;6.20;99.90;;;;;;5006808;28;21392;-71
2021/10/10 05:46:32;;;;;;;12.07;6.37;;;6.20;99.90;;;;;;5017982;28;20546;-71
2021/10/10 05:48:59;;;;;;;10.67;6.87;;;6.20;99.90;;;;;;5016246;28;20435;-68
2021/10/10 05:51:25;;;;;;;7.77;5.73;;;6.20;99.90;;;;;;5018376;28;20495;-70
2021/10/10 05:53:52;;;;;;;8.60;5.97;;;6.20;99.90;;;;;;5014520;28;20469;-70
2021/10/10 05:56:21;;;;;;;7.80;5.60;;;6.20;99.90;;;;;;5027456;28;20550;-68
2021/10/10 05:58:54;;;;;;;10.03;5.63;;;6.20;99.90;;;;;;5020275;28;20474;-70
2021/10/10 06:01:21;;;;;;;11.20;7.23;;;6.10;99.90;;;;;;5015376;28;20456;-69
2021/10/10 06:03:48;;;;;;;7.23;5.70;;;6.10;99.90;;;;;;5012282;28;20536;-70
2021/10/10 06:06:15;;;;;;;12.27;5.40;;;6.00;99.90;;;;;;5026884;28;20545;-69
2021/10/10 06:08:42;;;;;;;9.57;6.83;;;6.00;99.90;;;;;;5016269;28;20483;-69
2021/10/10 06:11:10;;;;;;;11.17;5.80;;;6.10;99.90;;;;;;5019209;28;20455;-69
2021/10/10 06:13:39;;;;;;;7.83;5.97;;;6.10;99.90;;;;;;5017974;28;20431;-69
2021/10/10 06:16:06;;;;;;;11.57;5.53;;;6.00;99.90;;;;;;5023402;28;20457;-69
2021/10/10 06:18:33;;;;;;;8.07;5.20;;;6.10;99.90;;;;;;5005635;28;20534;-69
2021/10/10 06:21:00;;;;;;;10.73;6.00;;;6.10;99.90;;;;;;5013545;28;20981;-68
2021/10/10 06:23:27;;;;;;;6.47;4.20;;;6.20;99.90;;;;;;5011756;28;20457;-69
2021/10/10 06:25:54;;;;;;;6.63;5.37;;;6.20;99.90;;;;;;5020988;28;20915;-69
2021/10/10 06:28:21;;;;;;;6.63;5.20;;;6.20;99.90;;;;;;5022516;28;20465;-69
2021/10/10 06:30:50;;;;;;;7.47;5.07;;;6.30;99.90;;;;;;5018349;28;20508;-69
2021/10/10 06:33:17;;;;;;;6.93;4.10;;;6.40;99.90;;;;;;5029964;28;20871;-69
2021/10/10 06:35:44;;;;;;;11.00;6.03;;;6.40;99.90;;;;;;5024532;28;20469;-69
2021/10/10 06:38:11;;;;;;;9.10;6.00;;;6.40;99.90;;;;;;5006971;28;20548;-69
2021/10/10 06:40:38;;;;;;;8.83;5.60;;;6.50;99.90;;;;;;5010211;28;20550;-68
2021/10/10 06:43:05;;;;;;;8.43;4.93;;;6.50;99.90;;;;;;4998827;28;20875;-69
2021/10/10 06:45:32;;;;;;;6.97;4.50;;;6.50;99.90;;;;;;5013182;28;20565;-69
2021/10/10 06:48:01;;;;;;;7.90;5.40;;;6.50;99.90;;;;;;5017297;28;20512;-69
2021/10/10 06:50:28;;;;;;;8.10;5.20;;;6.50;99.90;;;;;;5006052;28;20516;-69
2021/10/10 06:52:55;;;;;;;5.50;4.37;;;6.40;99.90;;;;;;5014225;28;20547;-69
2021/10/10 06:55:22;;;;;;;9.97;5.50;;;6.40;99.90;;;;;;5021602;28;21146;-71
2021/10/10 06:57:49;;;;;;;7.57;6.40;;;6.30;99.90;;;;;;5020761;28;20479;-70
2021/10/10 07:00:16;;;;;;;5.53;4.33;;;6.20;99.90;;;;;;5016262;28;20524;-69
2021/10/10 07:02:43;;;;;;;14.10;7.00;;;6.40;99.90;;;;;;5010982;28;20610;-70
2021/10/10 07:05:13;;;;;;;10.20;5.33;;;6.50;99.90;;;;;;5019013;28;20496;-69
2021/10/10 07:07:40;;;;;;;7.10;4.77;;;6.70;99.90;;;;;;5011303;28;22178;-69
2021/10/10 07:10:09;;;;;;;11.53;7.40;;;6.80;99.90;;;;;;5022795;28;20482;-69
2021/10/10 07:12:36;;;;;;;7.70;5.87;;;6.90;99.90;;;;;;5016976;28;20451;-70
2021/10/10 07:15:07;;;;;;;13.30;6.63;;;7.10;99.90;;;;;;5014005;28;20476;-71
2021/10/10 07:17:34;;;;;;;18.70;7.20;;;7.20;99.90;;;;;;4998883;28;20476;-70
2021/10/10 07:20:04;;;;;;;5.60;5.10;;;7.40;99.90;;;;;;5008362;28;20439;-69
2021/10/10 07:22:43;;;;;;;12.47;5.63;;;7.50;99.90;;;;;;5004697;28;21523;-69
2021/10/10 07:25:11;;;;;;;9.00;5.63;;;7.50;99.90;;;;;;4997056;28;20616;-69
2021/10/10 07:27:40;;;;;;;11.00;7.23;;;7.50;99.90;;;;;;4998531;28;20487;-69
2021/10/10 07:30:08;;;;;;;10.73;6.17;;;7.70;99.90;;;;;;5014469;28;20480;-70
2021/10/10 07:32:36;;;;;;;10.00;6.27;;;7.80;99.90;;;;;;5008900;28;20534;-70
2021/10/10 07:35:04;;;;;;;12.60;8.13;;;8.00;99.90;;;;;;5011020;28;20960;-69
2021/10/10 07:37:32;;;;;;;7.97;6.20;;;7.90;99.90;;;;;;5017943;28;20486;-70
2021/10/10 07:40:01;;;;;;;18.80;7.17;;;7.80;99.90;;;;;;5019918;28;20459;-68
2021/10/10 07:42:28;;;;;;;8.70;6.37;;;7.80;99.90;;;;;;5013096;28;20543;-69
2021/10/10 07:45:04;;;;;;;8.97;8.00;;;8.00;99.90;;;;;;5020729;28;20457;-70
2021/10/10 07:47:47;;;;;;;12.43;6.33;;;8.40;99.90;;;;;;5016488;28;20479;-71
2021/10/10 07:50:14;;;;;;;11.67;7.60;;;8.50;99.90;;;;;;5014884;28;20468;-72
2021/10/10 07:52:42;;;;;;;11.27;8.80;;;8.60;99.90;;;;;;5013612;28;20463;-71
2021/10/10 07:55:10;;;;;;;11.30;7.33;;;8.80;99.90;;;;;;5007700;28;20993;-71
2021/10/10 07:57:37;;;;;;;9.90;6.20;;;9.10;99.90;;;;;;5023732;28;20508;-69
2021/10/10 08:00:04;;;;;;;10.50;6.50;;;9.30;99.90;;;;;;5013708;28;20589;-70
2021/10/10 08:02:31;;;;;;;10.97;6.87;;;9.60;99.90;;;;;;5010047;28;20456;-70
2021/10/10 08:04:58;;;;;;;13.17;8.03;;;9.70;99.90;;;;;;5013408;28;20453;-70
2021/10/10 08:07:25;;;;;;;13.70;6.43;;;9.90;99.90;;;;;;5014289;28;20516;-71
2021/10/10 08:09:54;;;;;;;10.07;6.23;;;10.10;99.90;;;;;;5010457;28;20460;-70
2021/10/10 08:12:20;;;;;;;7.90;5.90;;;10.30;99.90;;;;;;5008024;28;20542;-70
2021/10/10 08:14:47;;;;;;;10.43;6.00;;;10.60;99.90;;;;;;5014252;28;20558;-67
2021/10/10 08:17:14;;;;;;;7.13;5.47;;;11.00;99.90;;;;;;5021139;28;20976;-68
2021/10/10 08:19:41;;;;;;;6.07;5.30;;;11.20;99.90;;;;;;5010815;28;20527;-69
2021/10/10 08:22:08;;;;;;;12.93;7.20;;;11.40;99.90;;;;;;5014237;28;20625;-70
2021/10/10 08:24:35;;;;;;;12.33;7.50;;;11.70;99.90;;;;;;5016238;28;21002;-68
2021/10/10 08:27:04;;;;;;;8.27;5.23;;;12.80;99.90;;;;;;5004529;28;20565;-70
2021/10/10 08:29:30;;;;;;;11.53;7.50;;;14.30;99.90;;;;;;5008820;28;20547;-69
2021/10/10 08:31:57;;;;;;;10.20;5.20;;;16.10;99.90;;;;;;5004072;28;21050;-70
2021/10/10 08:34:24;;;;;;;7.97;6.40;;;17.70;99.90;;;;;;5011765;28;20508;-71
2021/10/10 08:36:51;;;;;;;15.50;9.30;;;18.50;99.90;;;;;;5015754;28;20821;-71
2021/10/10 08:39:23;;;;;;;10.63;7.37;;;19.20;99.90;;;;;;4997541;28;20999;-71
2021/10/10 08:41:52;;;;;;;12.93;7.97;;;20.10;99.90;;;;;;5009186;28;20472;-70
2021/10/10 08:44:28;;;;;;;10.00;8.47;;;20.40;99.90;;;;;;5003040;28;20969;-69
2021/10/10 08:47:01;;;;;;;16.27;9.47;;;20.90;99.90;;;;;;5004694;28;20484;-70
2021/10/10 08:49:28;;;;;;;15.17;8.03;;;21.40;99.90;;;;;;5008961;28;20536;-70
2021/10/10 08:51:55;;;;;;;13.20;8.50;;;21.40;99.30;;;;;;5014949;28;20578;-69
2021/10/10 08:54:22;;;;;;;11.20;8.93;;;22.10;98.90;;;;;;5019980;28;20555;-70
2021/10/10 08:56:50;;;;;;;9.30;7.47;;;22.90;97.50;;;;;;5005530;28;20491;-68
2021/10/10 08:59:19;;;;;;;11.17;7.90;;;22.90;96.60;;;;;;5013985;28;20484;-69
2021/10/10 09:01:49;;;;;;;11.03;7.77;;;23.20;96.00;;;;;;5004210;28;20492;-68
2021/10/10 09:04:16;;;;;;;13.97;7.90;;;24.10;94.70;;;;;;5001194;28;20602;-68
2021/10/10 09:06:43;;;;;;;12.07;8.17;;;24.00;94.20;;;;;;4995161;28;20494;-66
2021/10/10 09:09:29;;;;;;;9.13;6.20;;;24.50;93.80;;;;;;4999954;28;20464;-69
2021/10/10 09:12:01;;;;;;;10.50;7.27;;;24.20;92.50;;;;;;5004471;28;20472;-66
2021/10/10 09:14:28;;;;;;;9.30;6.47;;;24.20;92.40;;;;;;5008429;28;20634;-67
2021/10/10 09:17:11;;;;;;;8.47;7.67;;;24.60;91.70;;;;;;5031848;28;20476;-68
2021/10/10 09:19:38;;;;;;;8.30;6.60;;;24.50;91.40;;;;;;5010160;28;21771;-68
2021/10/10 09:22:07;;;;;;;9.30;7.60;;;24.60;90.70;;;;;;5004656;28;20551;-68
2021/10/10 09:24:34;;;;;;;9.37;6.90;;;24.60;92.60;;;;;;4990206;28;20615;-68
2021/10/10 09:27:05;;;;;;;10.10;7.70;;;24.80;91.70;;;;;;5004483;28;21105;-68
2021/10/10 09:29:36;;;;;;;9.40;6.67;;;25.10;90.40;;;;;;5000446;28;20464;-67
2021/10/10 09:32:07;;;;;;;9.10;7.40;;;25.30;90.50;;;;;;5017061;28;20499;-68
2021/10/10 09:34:37;;;;;;;14.17;8.17;;;26.00;90.40;;;;;;5023573;28;21048;-68
2021/10/10 09:37:09;;;;;;;9.10;6.90;;;26.40;88.10;;;;;;5031228;28;20474;-68
2021/10/10 09:39:40;;;;;;;11.30;7.30;;;25.60;87.70;;;;;;5026585;28;20464;-67
2021/10/10 09:42:07;;;;;;;10.33;7.50;;;25.00;88.30;;;;;;5029473;28;20448;-67
2021/10/10 09:44:47;;;;;;;15.63;6.93;;;24.90;90.00;;;;;;5030568;28;20559;-67
2021/10/10 09:47:16;;;;;;;10.03;7.37;;;25.70;88.30;;;;;;5031700;28;21016;-67
2021/10/10 09:49:45;;;;;;;11.53;8.13;;;24.60;90.10;;;;;;5027255;28;20464;-67
2021/10/10 09:52:15;;;;;;;13.60;8.83;;;25.10;89.00;;;;;;5026321;28;20523;-68
2021/10/10 09:54:53;;;;;;;13.77;8.30;;;25.50;88.10;;;;;;5035102;28;20456;-67
2021/10/10 09:57:21;;;;;;;9.67;7.20;;;25.10;88.10;;;;;;5027781;28;20551;-68
2021/10/10 09:59:48;;;;;;;10.03;7.00;;;25.20;88.80;;;;;;5023818;28;20547;-68
2021/10/10 10:02:16;;;;;;;14.60;7.63;;;25.10;87.20;;;;;;5029362;28;20520;-67
2021/10/10 10:04:50;;;;;;;8.00;5.83;;;24.50;89.50;;;;;;5029801;28;20491;-69
2021/10/10 10:07:18;;;;;;;11.13;6.80;;;24.90;88.60;;;;;;5038902;28;20503;-69
2021/10/10 10:09:50;;;;;;;11.47;6.87;;;24.60;87.30;;;;;;5035647;28;20526;-69
2021/10/10 10:12:18;;;;;;;9.13;7.10;;;24.80;85.90;;;;;;5021288;28;20472;-68
2021/10/10 10:14:49;;;;;;;12.50;8.60;;;24.70;85.60;;;;;;5031086;28;21134;-68
2021/10/10 10:17:18;;;;;;;12.63;6.53;;;24.40;87.70;;;;;;5031277;28;20673;-68
2021/10/10 10:19:48;;;;;;;10.03;5.80;;;25.20;87.40;;;;;;5019665;28;20924;-68
2021/10/10 10:22:18;;;;;;;9.80;7.00;;;25.70;85.40;;;;;;5020921;28;20847;-68
2021/10/10 10:24:46;;;;;;;9.40;7.00;;;25.40;84.70;;;;;;5022041;28;20518;-68
2021/10/10 10:27:13;;;;;;;7.80;7.00;;;24.30;86.50;;;;;;5028261;28;20523;-68
2021/10/10 10:29:43;;;;;;;10.67;7.43;;;24.50;86.50;;;;;;5019391;28;20448;-68
2021/10/10 10:32:12;;;;;;;10.80;6.77;;;24.00;87.50;;;;;;5018266;28;20476;-68
2021/10/10 10:34:39;;;;;;;8.93;6.70;;;25.60;87.30;;;;;;5024888;28;20453;-68
2021/10/10 10:37:09;;;;;;;11.47;7.30;;;25.60;84.80;;;;;;5025713;28;20559;-69
2021/10/10 10:39:38;;;;;;;12.60;6.80;;;26.20;84.70;;;;;;5028913;28;20494;-67
2021/10/10 10:42:07;;;;;;;10.40;8.00;;;26.40;83.00;;;;;;5021513;28;20460;-68
2021/10/10 10:44:36;;;;;;;11.60;8.07;;;27.10;81.40;;;;;;5029461;28;20575;-69
2021/10/10 10:47:04;;;;;;;9.97;7.37;;;27.10;77.50;;;;;;5027571;28;20917;-68
2021/10/10 10:49:58;;;;;;;9.33;8.30;;;26.20;79.90;;;;;;5025424;28;20552;-67
2021/10/10 10:52:28;;;;;;;13.33;6.70;;;26.00;82.70;;;;;;5023634;28;20825;-68
2021/10/10 10:54:56;;;;;;;9.13;7.60;;;26.20;79.00;;;;;;5029536;28;20483;-68
2021/10/10 10:57:28;;;;;;;10.63;7.13;;;25.20;81.60;;;;;;5030655;28;20500;-67
2021/10/10 11:00:04;;;;;;;8.93;7.70;;;24.50;81.90;;;;;;5030267;28;20539;-68
2021/10/10 11:02:49;;;;;;;10.10;7.67;;;24.50;83.80;;;;;;5025908;28;20534;-68
2021/10/10 11:05:33;;;;;;;10.93;7.60;;;24.60;83.60;;;;;;5024987;28;20539;-68
2021/10/10 11:08:03;;;;;;;11.47;8.03;;;24.10;83.40;;;;;;5030543;28;20488;-68
2021/10/10 11:10:32;;;;;;;10.97;6.20;;;23.80;86.10;;;;;;5028870;28;20942;-69
2021/10/10 11:13:24;;;;;;;12.60;7.47;;;24.10;81.40;;;;;;5026745;28;20564;-67
2021/10/10 11:15:52;;;;;;;8.23;6.60;;;24.30;80.80;;;;;;5031860;28;20522;-69
2021/10/10 11:18:19;;;;;;;11.43;7.60;;;25.00;83.70;;;;;;5022261;28;20475;-68
2021/10/10 11:20:51;;;;;;;11.87;7.70;;;25.70;79.70;;;;;;5022051;28;20481;-68
2021/10/10 11:23:18;;;;;;;10.83;7.57;;;25.90;78.80;;;;;;5029864;28;20547;-68
2021/10/10 11:25:45;;;;;;;11.53;7.33;;;25.80;81.40;;;;;;5035633;28;20551;-69
2021/10/10 11:28:12;;;;;;;12.50;7.10;;;26.10;78.00;;;;;;5029966;28;20535;-68
2021/10/10 11:30:41;;;;;;;9.30;7.30;;;26.10;76.70;;;;;;5029889;28;20839;-68
2021/10/10 11:33:08;;;;;;;8.77;7.33;;;26.00;77.10;;;;;;5034013;28;20885;-68
2021/10/10 11:35:40;;;;;;;15.07;7.70;;;25.90;77.20;;;;;;5032926;28;20534;-68
2021/10/10 11:38:09;;;;;;;11.40;7.90;;;26.40;77.50;;;;;;5035582;28;20514;-69
2021/10/10 11:40:37;;;;;;;9.07;7.10;;;27.50;75.40;;;;;;5034584;28;20461;-69
2021/10/10 11:43:04;;;;;;;10.20;7.13;;;28.10;71.80;;;;;;5027733;28;20826;-68
2021/10/10 11:45:31;;;;;;;10.10;6.50;;;28.20;69.90;;;;;;5030324;28;20484;-68
2021/10/10 11:47:59;;;;;;;8.20;6.10;;;28.60;67.40;;;;;;5035868;28;20460;-69
2021/10/10 11:50:33;;;;;;;10.00;7.10;;;28.10;70.20;;;;;;5032960;28;20551;-67
2021/10/10 11:53:01;;;;;;;9.30;6.83;;;27.90;70.30;;;;;;5027510;28;20477;-70
2021/10/10 11:55:34;;;;;;;14.73;6.63;;;28.20;69.30;;;;;;5030995;28;20490;-69
2021/10/10 11:58:03;;;;;;;10.03;6.70;;;29.10;71.70;;;;;;5022585;28;20484;-69
2021/10/10 12:00:31;;;;;;;8.73;6.27;;;29.80;66.70;;;;;;5024077;28;20443;-70
2021/10/10 12:03:09;;;;;;;15.33;6.83;;;30.30;66.20;;;;;;5025691;28;20457;-68
2021/10/10 12:05:41;;;;;;;11.73;6.50;;;30.60;62.40;;;;;;5029542;28;20455;-68
2021/10/10 12:08:26;;;;;;;6.27;5.57;;;29.90;61.60;;;;;;5023766;28;20468;-67
2021/10/10 12:10:53;;;;;;;8.27;6.63;;;30.10;64.40;;;;;;5023481;28;20865;-66
2021/10/10 12:13:22;;;;;;;8.37;7.00;;;30.20;62.90;;;;;;5022669;28;20483;-67
2021/10/10 12:15:58;;;;;;;9.53;7.67;;;30.00;62.80;;;;;;5025868;28;20530;-68
2021/10/10 12:18:30;;;;;;;8.50;7.37;;;30.00;60.30;;;;;;5028056;28;20839;-67
2021/10/10 12:21:18;;;;;;;7.20;6.00;;;29.40;59.70;;;;;;5015588;28;20462;-68
2021/10/10 12:23:45;;;;;;;10.03;6.43;;;29.30;60.20;;;;;;5024595;28;20961;-67
2021/10/10 12:26:13;;;;;;;9.60;6.43;;;29.60;62.10;;;;;;5030801;28;20468;-68
2021/10/10 12:28:40;;;;;;;9.77;6.60;;;30.00;61.00;;;;;;5031847;28;20460;-66
2021/10/10 12:31:07;;;;;;;7.03;6.20;;;29.50;60.80;;;;;;5030174;28;20457;-67
2021/10/10 12:33:39;;;;;;;8.23;6.20;;;29.40;59.90;;;;;;5023163;28;20454;-67
2021/10/10 12:36:09;;;;;;;8.40;6.70;;;29.30;60.30;;;;;;5030822;28;20464;-66
2021/10/10 12:38:37;;;;;;;8.77;7.90;;;29.40;60.00;;;;;;5043079;28;20497;-68
2021/10/10 12:41:26;;;;;;;8.57;6.60;;;29.80;59.80;;;;;;5035859;28;20512;-69
2021/10/10 12:43:56;;;;;;;6.90;6.20;;;29.90;59.60;;;;;;5033582;28;20516;-68
2021/10/10 12:46:25;;;;;;;8.07;6.90;;;29.70;60.50;;;;;;5024147;28;20527;-67
2021/10/10 12:49:03;;;;;;;9.47;6.47;;;29.60;59.90;;;;;;5037971;28;20574;-67
2021/10/10 12:51:31;;;;;;;9.93;5.50;;;29.90;60.00;;;;;;5027199;28;20456;-67
2021/10/10 12:54:11;;;;;;;7.00;5.43;;;29.50;59.90;;;;;;5008693;28;20954;-68